sensor_id;sensor_type;location;lat;lon;timestamp;P1;durP1;ratioP1;P2;durP2;ratioP2
10880;SDS011;5493;48.884;8.338;2023-01-08T00:01:52;19.83;;;11.53;;
10880;SDS011;5493;48.884;8.338;2023-01-08T00:04:18;10.50;;;6.60;;
10880;SDS011;5493;48.884;8.338;2023-01-08T00:06:45;6.67;;;4.93;;
10880;SDS011;5493;48.884;8.338;2023-01-08T00:09:11;4.83;;;3.80;;
10880;SDS011;5493;48.884;8.338;2023-01-08T00:11:38;5.30;;;3.90;;
10880;SDS011;5493;48.884;8.338;2023-01-08T00:14:06;5.37;;;4.07;;
10880;SDS011;5493;48.884;8.338;2023-01-08T00:16:33;6.60;;;4.43;;
10880;SDS011;5493;48.884;8.338;2023-01-08T00:18:59;5.83;;;4.43;;
10880;SDS011;5493;48.884;8.338;2023-01-08T00:21:26;5.47;;;4.07;;
10880;SDS011;5493;48.884;8.338;2023-01-08T00:23:53;5.60;;;3.73;;
10880;SDS011;5493;48.884;8.338;2023-01-08T00:26:20;5.80;;;3.80;;
10880;SDS011;5493;48.884;8.338;2023-01-08T00:28:46;5.70;;;3.87;;
10880;SDS011;5493;48.884;8.338;2023-01-08T00:31:14;5.30;;;3.53;;
10880;SDS011;5493;48.884;8.338;2023-01-08T00:33:41;5.10;;;3.70;;
10880;SDS011;5493;48.884;8.338;2023-01-08T00:36:08;5.47;;;3.80;;
10880;SDS011;5493;48.884;8.338;2023-01-08T00:38:36;5.17;;;3.70;;
10880;SDS011;5493;48.884;8.338;2023-01-08T00:41:03;4.00;;;3.40;;
10880;SDS011;5493;48.884;8.338;2023-01-08T00:43:29;6.50;;;3.90;;
10880;SDS011;5493;48.884;8.338;2023-01-08T00:45:56;4.37;;;3.57;;
10880;SDS011;5493;48.884;8.338;2023-01-08T00:48:24;7.30;;;4.07;;
10880;SDS011;5493;48.884;8.338;2023-01-08T00:50:51;5.27;;;3.87;;
10880;SDS011;5493;48.884;8.338;2023-01-08T00:53:19;6.80;;;4.00;;
10880;SDS011;5493;48.884;8.338;2023-01-08T00:55:46;5.00;;;3.33;;
10880;SDS011;5493;48.884;8.338;2023-01-08T00:58:14;4.53;;;3.30;;
10880;SDS011;5493;48.884;8.338;2023-01-08T01:00:40;4.97;;;3.70;;
10880;SDS011;5493;48.884;8.338;2023-01-08T01:03:07;4.53;;;3.63;;
10880;SDS011;5493;48.884;8.338;2023-01-08T01:05:35;4.80;;;3.73;;
10880;SDS011;5493;48.884;8.338;2023-01-08T01:08:02;5.30;;;3.53;;
10880;SDS011;5493;48.884;8.338;2023-01-08T01:10:28;6.93;;;3.73;;
10880;SDS011;5493;48.884;8.338;2023-01-08T01:12:55;6.27;;;4.40;;
10880;SDS011;5493;48.884;8.338;2023-01-08T01:15:21;5.27;;;3.73;;
10880;SDS011;5493;48.884;8.338;2023-01-08T01:17:48;4.17;;;3.70;;
10880;SDS011;5493;48.884;8.338;2023-01-08T01:20:14;5.47;;;4.27;;
10880;SDS011;5493;48.884;8.338;2023-01-08T01:22:43;5.53;;;4.27;;
10880;SDS011;5493;48.884;8.338;2023-01-08T01:25:09;5.87;;;4.50;;
10880;SDS011;5493;48.884;8.338;2023-01-08T01:27:36;5.67;;;4.80;;
10880;SDS011;5493;48.884;8.338;2023-01-08T01:30:03;6.10;;;4.67;;
10880;SDS011;5493;48.884;8.338;2023-01-08T01:32:30;6.27;;;4.33;;
10880;SDS011;5493;48.884;8.338;2023-01-08T01:34:57;5.90;;;4.37;;
10880;SDS011;5493;48.884;8.338;2023-01-08T01:37:24;6.17;;;4.30;;
10880;SDS011;5493;48.884;8.338;2023-01-08T01:39:51;6.67;;;4.47;;
10880;SDS011;5493;48.884;8.338;2023-01-08T01:42:20;5.40;;;3.90;;
10880;SDS011;5493;48.884;8.338;2023-01-08T01:45:05;6.83;;;4.07;;
10880;SDS011;5493;48.884;8.338;2023-01-08T01:47:40;6.60;;;4.40;;
10880;SDS011;5493;48.884;8.338;2023-01-08T01:50:09;5.80;;;4.57;;
10880;SDS011;5493;48.884;8.338;2023-01-08T01:52:38;9.17;;;4.77;;
10880;SDS011;5493;48.884;8.338;2023-01-08T01:55:09;7.90;;;4.33;;
10880;SDS011;5493;48.884;8.338;2023-01-08T01:57:37;7.17;;;4.40;;
10880;SDS011;5493;48.884;8.338;2023-01-08T02:00:05;10.00;;;4.53;;
10880;SDS011;5493;48.884;8.338;2023-01-08T02:02:34;6.60;;;4.60;;
10880;SDS011;5493;48.884;8.338;2023-01-08T02:05:00;5.40;;;4.23;;
10880;SDS011;5493;48.884;8.338;2023-01-08T02:07:28;6.40;;;4.00;;
10880;SDS011;5493;48.884;8.338;2023-01-08T02:10:06;7.00;;;4.20;;
10880;SDS011;5493;48.884;8.338;2023-01-08T02:12:40;4.73;;;3.67;;
10880;SDS011;5493;48.884;8.338;2023-01-08T02:15:12;5.00;;;3.53;;
10880;SDS011;5493;48.884;8.338;2023-01-08T02:17:43;4.07;;;2.83;;
10880;SDS011;5493;48.884;8.338;2023-01-08T02:20:16;4.43;;;3.10;;
10880;SDS011;5493;48.884;8.338;2023-01-08T02:22:47;4.47;;;2.80;;
10880;SDS011;5493;48.884;8.338;2023-01-08T02:25:32;4.80;;;2.80;;
10880;SDS011;5493;48.884;8.338;2023-01-08T02:28:12;3.33;;;2.70;;
10880;SDS011;5493;48.884;8.338;2023-01-08T02:30:40;3.67;;;2.50;;
10880;SDS011;5493;48.884;8.338;2023-01-08T02:33:07;5.23;;;2.70;;
10880;SDS011;5493;48.884;8.338;2023-01-08T02:35:53;4.43;;;3.03;;
10880;SDS011;5493;48.884;8.338;2023-01-08T02:38:35;4.00;;;2.70;;
10880;SDS011;5493;48.884;8.338;2023-01-08T02:41:07;4.33;;;2.90;;
10880;SDS011;5493;48.884;8.338;2023-01-08T02:43:39;3.33;;;3.03;;
10880;SDS011;5493;48.884;8.338;2023-01-08T02:46:10;4.37;;;2.97;;
10880;SDS011;5493;48.884;8.338;2023-01-08T02:48:41;4.23;;;2.80;;
10880;SDS011;5493;48.884;8.338;2023-01-08T02:51:12;4.60;;;3.20;;
10880;SDS011;5493;48.884;8.338;2023-01-08T02:53:46;5.93;;;3.27;;
10880;SDS011;5493;48.884;8.338;2023-01-08T02:56:15;3.07;;;2.77;;
10880;SDS011;5493;48.884;8.338;2023-01-08T02:58:46;4.47;;;3.20;;
10880;SDS011;5493;48.884;8.338;2023-01-08T03:01:16;3.97;;;2.77;;
10880;SDS011;5493;48.884;8.338;2023-01-08T03:03:44;3.80;;;2.87;;
10880;SDS011;5493;48.884;8.338;2023-01-08T03:06:14;4.47;;;2.70;;
10880;SDS011;5493;48.884;8.338;2023-01-08T03:08:44;4.60;;;3.13;;
10880;SDS011;5493;48.884;8.338;2023-01-08T03:11:13;3.83;;;3.00;;
10880;SDS011;5493;48.884;8.338;2023-01-08T03:13:43;3.73;;;2.77;;
10880;SDS011;5493;48.884;8.338;2023-01-08T03:16:16;4.00;;;2.57;;
10880;SDS011;5493;48.884;8.338;2023-01-08T03:18:48;3.03;;;2.70;;
10880;SDS011;5493;48.884;8.338;2023-01-08T03:21:17;2.83;;;2.37;;
10880;SDS011;5493;48.884;8.338;2023-01-08T03:23:47;4.60;;;2.17;;
10880;SDS011;5493;48.884;8.338;2023-01-08T03:26:17;4.77;;;2.93;;
10880;SDS011;5493;48.884;8.338;2023-01-08T03:28:48;3.77;;;2.50;;
10880;SDS011;5493;48.884;8.338;2023-01-08T03:31:18;3.27;;;2.40;;
10880;SDS011;5493;48.884;8.338;2023-01-08T03:33:48;3.37;;;2.60;;
10880;SDS011;5493;48.884;8.338;2023-01-08T03:36:15;4.70;;;2.70;;
10880;SDS011;5493;48.884;8.338;2023-01-08T03:38:46;4.70;;;2.50;;
10880;SDS011;5493;48.884;8.338;2023-01-08T03:41:18;4.17;;;2.23;;
10880;SDS011;5493;48.884;8.338;2023-01-08T03:43:49;4.30;;;2.50;;
10880;SDS011;5493;48.884;8.338;2023-01-08T03:46:17;3.23;;;2.20;;
10880;SDS011;5493;48.884;8.338;2023-01-08T03:48:46;2.70;;;2.10;;
10880;SDS011;5493;48.884;8.338;2023-01-08T03:51:15;3.00;;;2.37;;
10880;SDS011;5493;48.884;8.338;2023-01-08T03:53:42;4.50;;;2.57;;
10880;SDS011;5493;48.884;8.338;2023-01-08T03:56:09;3.60;;;2.50;;
10880;SDS011;5493;48.884;8.338;2023-01-08T03:58:35;3.93;;;2.53;;
10880;SDS011;5493;48.884;8.338;2023-01-08T04:01:03;5.27;;;2.50;;
10880;SDS011;5493;48.884;8.338;2023-01-08T04:03:30;4.13;;;2.60;;
10880;SDS011;5493;48.884;8.338;2023-01-08T04:05:57;3.27;;;2.57;;
10880;SDS011;5493;48.884;8.338;2023-01-08T04:08:24;2.93;;;2.60;;
10880;SDS011;5493;48.884;8.338;2023-01-08T04:10:51;4.57;;;2.60;;
10880;SDS011;5493;48.884;8.338;2023-01-08T04:13:17;2.90;;;2.60;;
10880;SDS011;5493;48.884;8.338;2023-01-08T04:15:46;3.70;;;2.70;;
10880;SDS011;5493;48.884;8.338;2023-01-08T04:18:14;4.47;;;2.70;;
10880;SDS011;5493;48.884;8.338;2023-01-08T04:20:43;3.13;;;2.77;;
10880;SDS011;5493;48.884;8.338;2023-01-08T04:23:10;4.77;;;2.97;;
10880;SDS011;5493;48.884;8.338;2023-01-08T04:25:37;2.90;;;2.57;;
10880;SDS011;5493;48.884;8.338;2023-01-08T04:28:03;3.23;;;2.37;;
10880;SDS011;5493;48.884;8.338;2023-01-08T04:30:30;3.27;;;2.77;;
10880;SDS011;5493;48.884;8.338;2023-01-08T04:32:56;4.37;;;2.90;;
10880;SDS011;5493;48.884;8.338;2023-01-08T04:35:24;7.83;;;5.33;;
10880;SDS011;5493;48.884;8.338;2023-01-08T04:37:51;19.17;;;11.90;;
10880;SDS011;5493;48.884;8.338;2023-01-08T04:40:17;5.63;;;4.20;;
10880;SDS011;5493;48.884;8.338;2023-01-08T04:42:44;6.67;;;3.37;;
10880;SDS011;5493;48.884;8.338;2023-01-08T04:45:10;4.37;;;3.00;;
10880;SDS011;5493;48.884;8.338;2023-01-08T04:47:37;5.77;;;2.40;;
10880;SDS011;5493;48.884;8.338;2023-01-08T04:50:04;1.70;;;1.33;;
10880;SDS011;5493;48.884;8.338;2023-01-08T04:52:32;1.50;;;1.37;;
10880;SDS011;5493;48.884;8.338;2023-01-08T04:54:59;1.67;;;1.50;;
10880;SDS011;5493;48.884;8.338;2023-01-08T04:57:25;2.50;;;1.40;;
10880;SDS011;5493;48.884;8.338;2023-01-08T04:59:52;1.57;;;1.47;;
10880;SDS011;5493;48.884;8.338;2023-01-08T05:02:18;2.03;;;1.67;;
10880;SDS011;5493;48.884;8.338;2023-01-08T05:04:46;2.20;;;1.13;;
10880;SDS011;5493;48.884;8.338;2023-01-08T05:07:13;4.50;;;1.53;;
10880;SDS011;5493;48.884;8.338;2023-01-08T05:09:40;1.90;;;1.43;;
10880;SDS011;5493;48.884;8.338;2023-01-08T05:12:07;2.53;;;1.63;;
10880;SDS011;5493;48.884;8.338;2023-01-08T05:14:33;3.07;;;1.43;;
10880;SDS011;5493;48.884;8.338;2023-01-08T05:17:00;1.17;;;1.00;;
10880;SDS011;5493;48.884;8.338;2023-01-08T05:19:26;5.33;;;1.60;;
10880;SDS011;5493;48.884;8.338;2023-01-08T05:21:53;1.47;;;1.37;;
10880;SDS011;5493;48.884;8.338;2023-01-08T05:24:19;1.47;;;1.23;;
10880;SDS011;5493;48.884;8.338;2023-01-08T05:26:47;2.83;;;1.70;;
10880;SDS011;5493;48.884;8.338;2023-01-08T05:29:14;1.90;;;1.47;;
10880;SDS011;5493;48.884;8.338;2023-01-08T05:31:41;3.13;;;1.80;;
10880;SDS011;5493;48.884;8.338;2023-01-08T05:34:07;1.50;;;1.40;;
10880;SDS011;5493;48.884;8.338;2023-01-08T05:36:33;2.77;;;1.60;;
10880;SDS011;5493;48.884;8.338;2023-01-08T05:39:00;2.67;;;1.70;;
10880;SDS011;5493;48.884;8.338;2023-01-08T05:41:26;2.00;;;1.33;;
10880;SDS011;5493;48.884;8.338;2023-01-08T05:43:54;2.00;;;1.50;;
10880;SDS011;5493;48.884;8.338;2023-01-08T05:46:21;1.87;;;1.50;;
10880;SDS011;5493;48.884;8.338;2023-01-08T05:48:47;2.40;;;1.60;;
10880;SDS011;5493;48.884;8.338;2023-01-08T05:51:14;2.33;;;1.60;;
10880;SDS011;5493;48.884;8.338;2023-01-08T05:53:41;1.63;;;1.47;;
10880;SDS011;5493;48.884;8.338;2023-01-08T05:56:07;3.00;;;1.70;;
10880;SDS011;5493;48.884;8.338;2023-01-08T05:58:36;2.03;;;1.50;;
10880;SDS011;5493;48.884;8.338;2023-01-08T06:01:05;2.03;;;1.60;;
10880;SDS011;5493;48.884;8.338;2023-01-08T06:03:32;4.30;;;1.40;;
10880;SDS011;5493;48.884;8.338;2023-01-08T06:05:59;1.70;;;1.30;;
10880;SDS011;5493;48.884;8.338;2023-01-08T06:08:26;1.90;;;1.70;;
10880;SDS011;5493;48.884;8.338;2023-01-08T06:10:53;1.80;;;1.70;;
10880;SDS011;5493;48.884;8.338;2023-01-08T06:13:20;3.13;;;1.73;;
10880;SDS011;5493;48.884;8.338;2023-01-08T06:15:46;2.90;;;1.97;;
10880;SDS011;5493;48.884;8.338;2023-01-08T06:18:14;2.37;;;1.93;;
10880;SDS011;5493;48.884;8.338;2023-01-08T06:20:41;1.67;;;1.53;;
10880;SDS011;5493;48.884;8.338;2023-01-08T06:23:07;3.00;;;1.83;;
10880;SDS011;5493;48.884;8.338;2023-01-08T06:25:34;2.50;;;1.50;;
10880;SDS011;5493;48.884;8.338;2023-01-08T06:28:00;1.17;;;1.07;;
10880;SDS011;5493;48.884;8.338;2023-01-08T06:30:27;2.10;;;1.50;;
10880;SDS011;5493;48.884;8.338;2023-01-08T06:32:54;2.07;;;1.50;;
10880;SDS011;5493;48.884;8.338;2023-01-08T06:35:22;2.30;;;1.43;;
10880;SDS011;5493;48.884;8.338;2023-01-08T06:37:49;1.37;;;1.20;;
10880;SDS011;5493;48.884;8.338;2023-01-08T06:40:15;2.37;;;1.50;;
10880;SDS011;5493;48.884;8.338;2023-01-08T06:42:42;1.57;;;1.20;;
10880;SDS011;5493;48.884;8.338;2023-01-08T06:45:10;2.40;;;1.40;;
10880;SDS011;5493;48.884;8.338;2023-01-08T06:47:37;1.90;;;1.57;;
10880;SDS011;5493;48.884;8.338;2023-01-08T06:50:04;2.23;;;1.60;;
10880;SDS011;5493;48.884;8.338;2023-01-08T06:52:33;2.30;;;1.40;;
10880;SDS011;5493;48.884;8.338;2023-01-08T06:54:59;1.83;;;1.53;;
10880;SDS011;5493;48.884;8.338;2023-01-08T06:57:26;3.97;;;1.90;;
10880;SDS011;5493;48.884;8.338;2023-01-08T06:59:52;6.53;;;2.33;;
10880;SDS011;5493;48.884;8.338;2023-01-08T07:02:19;4.97;;;2.37;;
10880;SDS011;5493;48.884;8.338;2023-01-08T07:04:45;5.40;;;2.53;;
10880;SDS011;5493;48.884;8.338;2023-01-08T07:07:12;7.13;;;3.07;;
10880;SDS011;5493;48.884;8.338;2023-01-08T07:09:41;5.63;;;2.73;;
10880;SDS011;5493;48.884;8.338;2023-01-08T07:12:10;5.23;;;2.40;;
10880;SDS011;5493;48.884;8.338;2023-01-08T07:14:38;4.03;;;1.80;;
10880;SDS011;5493;48.884;8.338;2023-01-08T07:17:05;3.17;;;2.00;;
10880;SDS011;5493;48.884;8.338;2023-01-08T07:19:32;2.63;;;1.63;;
10880;SDS011;5493;48.884;8.338;2023-01-08T07:21:58;3.23;;;2.10;;
10880;SDS011;5493;48.884;8.338;2023-01-08T07:24:25;9.07;;;5.67;;
10880;SDS011;5493;48.884;8.338;2023-01-08T07:26:53;3.00;;;1.53;;
10880;SDS011;5493;48.884;8.338;2023-01-08T07:29:19;2.53;;;1.87;;
10880;SDS011;5493;48.884;8.338;2023-01-08T07:31:46;3.30;;;1.80;;
10880;SDS011;5493;48.884;8.338;2023-01-08T07:34:12;2.37;;;1.63;;
10880;SDS011;5493;48.884;8.338;2023-01-08T07:36:39;1.23;;;1.10;;
10880;SDS011;5493;48.884;8.338;2023-01-08T07:39:05;2.40;;;1.50;;
10880;SDS011;5493;48.884;8.338;2023-01-08T07:41:32;1.70;;;1.40;;
10880;SDS011;5493;48.884;8.338;2023-01-08T07:44:00;1.93;;;1.60;;
10880;SDS011;5493;48.884;8.338;2023-01-08T07:46:26;3.23;;;1.40;;
10880;SDS011;5493;48.884;8.338;2023-01-08T07:48:54;1.93;;;1.30;;
10880;SDS011;5493;48.884;8.338;2023-01-08T07:51:21;1.40;;;1.10;;
10880;SDS011;5493;48.884;8.338;2023-01-08T07:53:48;1.40;;;1.30;;
10880;SDS011;5493;48.884;8.338;2023-01-08T07:56:16;1.73;;;1.40;;
10880;SDS011;5493;48.884;8.338;2023-01-08T07:58:42;2.07;;;1.50;;
10880;SDS011;5493;48.884;8.338;2023-01-08T08:01:10;1.73;;;1.40;;
10880;SDS011;5493;48.884;8.338;2023-01-08T08:03:37;2.63;;;1.77;;
10880;SDS011;5493;48.884;8.338;2023-01-08T08:06:04;1.50;;;1.40;;
10880;SDS011;5493;48.884;8.338;2023-01-08T08:08:32;1.40;;;1.30;;
10880;SDS011;5493;48.884;8.338;2023-01-08T08:10:59;3.30;;;1.40;;
10880;SDS011;5493;48.884;8.338;2023-01-08T08:13:26;1.07;;;0.97;;
10880;SDS011;5493;48.884;8.338;2023-01-08T08:15:52;1.10;;;0.90;;
10880;SDS011;5493;48.884;8.338;2023-01-08T08:18:20;1.83;;;1.20;;
10880;SDS011;5493;48.884;8.338;2023-01-08T08:20:47;1.37;;;1.20;;
10880;SDS011;5493;48.884;8.338;2023-01-08T08:23:15;1.40;;;1.27;;
10880;SDS011;5493;48.884;8.338;2023-01-08T08:25:42;1.43;;;1.20;;
10880;SDS011;5493;48.884;8.338;2023-01-08T08:28:09;1.73;;;1.50;;
10880;SDS011;5493;48.884;8.338;2023-01-08T08:30:36;1.47;;;1.00;;
10880;SDS011;5493;48.884;8.338;2023-01-08T08:33:04;1.33;;;1.17;;
10880;SDS011;5493;48.884;8.338;2023-01-08T08:35:33;1.53;;;1.37;;
10880;SDS011;5493;48.884;8.338;2023-01-08T08:38:00;3.53;;;1.40;;
10880;SDS011;5493;48.884;8.338;2023-01-08T08:40:27;2.43;;;1.20;;
10880;SDS011;5493;48.884;8.338;2023-01-08T08:42:54;4.13;;;2.70;;
10880;SDS011;5493;48.884;8.338;2023-01-08T08:45:21;10.07;;;5.13;;
10880;SDS011;5493;48.884;8.338;2023-01-08T08:47:48;17.70;;;11.00;;
10880;SDS011;5493;48.884;8.338;2023-01-08T08:50:15;5.63;;;4.10;;
10880;SDS011;5493;48.884;8.338;2023-01-08T08:52:42;3.43;;;2.80;;
10880;SDS011;5493;48.884;8.338;2023-01-08T08:55:10;3.77;;;3.03;;
10880;SDS011;5493;48.884;8.338;2023-01-08T08:57:39;6.30;;;3.47;;
10880;SDS011;5493;48.884;8.338;2023-01-08T09:00:06;3.67;;;1.93;;
10880;SDS011;5493;48.884;8.338;2023-01-08T09:02:33;1.93;;;1.70;;
10880;SDS011;5493;48.884;8.338;2023-01-08T09:04:59;2.60;;;1.67;;
10880;SDS011;5493;48.884;8.338;2023-01-08T09:07:26;2.10;;;1.87;;
10880;SDS011;5493;48.884;8.338;2023-01-08T09:09:54;3.20;;;2.20;;
10880;SDS011;5493;48.884;8.338;2023-01-08T09:12:20;3.23;;;2.10;;
10880;SDS011;5493;48.884;8.338;2023-01-08T09:14:47;4.07;;;3.10;;
10880;SDS011;5493;48.884;8.338;2023-01-08T09:17:14;4.20;;;2.90;;
10880;SDS011;5493;48.884;8.338;2023-01-08T09:19:40;3.57;;;3.20;;
10880;SDS011;5493;48.884;8.338;2023-01-08T09:22:07;3.70;;;2.63;;
10880;SDS011;5493;48.884;8.338;2023-01-08T09:24:33;3.53;;;2.60;;
10880;SDS011;5493;48.884;8.338;2023-01-08T09:27:01;2.70;;;2.10;;
10880;SDS011;5493;48.884;8.338;2023-01-08T09:29:28;2.13;;;1.90;;
10880;SDS011;5493;48.884;8.338;2023-01-08T09:31:55;4.90;;;2.33;;
10880;SDS011;5493;48.884;8.338;2023-01-08T09:34:24;2.83;;;2.30;;
10880;SDS011;5493;48.884;8.338;2023-01-08T09:36:50;2.67;;;2.20;;
10880;SDS011;5493;48.884;8.338;2023-01-08T09:39:17;3.50;;;2.33;;
10880;SDS011;5493;48.884;8.338;2023-01-08T09:41:44;2.10;;;1.90;;
10880;SDS011;5493;48.884;8.338;2023-01-08T09:44:15;2.37;;;2.00;;
10880;SDS011;5493;48.884;8.338;2023-01-08T09:46:45;2.87;;;1.57;;
10880;SDS011;5493;48.884;8.338;2023-01-08T09:49:14;3.30;;;2.00;;
10880;SDS011;5493;48.884;8.338;2023-01-08T09:51:45;3.30;;;2.00;;
10880;SDS011;5493;48.884;8.338;2023-01-08T09:54:13;3.37;;;1.90;;
10880;SDS011;5493;48.884;8.338;2023-01-08T09:56:41;3.17;;;1.40;;
10880;SDS011;5493;48.884;8.338;2023-01-08T09:59:09;1.90;;;1.70;;
10880;SDS011;5493;48.884;8.338;2023-01-08T10:01:41;1.77;;;1.60;;
10880;SDS011;5493;48.884;8.338;2023-01-08T10:04:12;3.17;;;1.70;;
10880;SDS011;5493;48.884;8.338;2023-01-08T10:06:41;3.10;;;2.13;;
10880;SDS011;5493;48.884;8.338;2023-01-08T10:09:15;2.50;;;1.93;;
10880;SDS011;5493;48.884;8.338;2023-01-08T10:11:45;3.13;;;2.27;;
10880;SDS011;5493;48.884;8.338;2023-01-08T10:14:16;1.97;;;1.77;;
10880;SDS011;5493;48.884;8.338;2023-01-08T10:16:50;2.10;;;1.53;;
10880;SDS011;5493;48.884;8.338;2023-01-08T10:19:21;2.13;;;1.60;;
10880;SDS011;5493;48.884;8.338;2023-01-08T10:21:47;2.23;;;1.67;;
10880;SDS011;5493;48.884;8.338;2023-01-08T10:24:15;1.83;;;1.40;;
10880;SDS011;5493;48.884;8.338;2023-01-08T10:26:43;1.93;;;1.30;;
10880;SDS011;5493;48.884;8.338;2023-01-08T10:29:12;1.30;;;1.20;;
10880;SDS011;5493;48.884;8.338;2023-01-08T10:31:43;1.27;;;1.13;;
10880;SDS011;5493;48.884;8.338;2023-01-08T10:34:18;1.17;;;1.07;;
10880;SDS011;5493;48.884;8.338;2023-01-08T10:36:50;1.17;;;1.07;;
10880;SDS011;5493;48.884;8.338;2023-01-08T10:39:20;1.57;;;1.20;;
10880;SDS011;5493;48.884;8.338;2023-01-08T10:41:50;2.43;;;1.43;;
10880;SDS011;5493;48.884;8.338;2023-01-08T10:44:20;1.13;;;1.03;;
10880;SDS011;5493;48.884;8.338;2023-01-08T10:46:51;1.27;;;1.07;;
10880;SDS011;5493;48.884;8.338;2023-01-08T10:49:23;1.20;;;1.10;;
10880;SDS011;5493;48.884;8.338;2023-01-08T10:51:55;2.07;;;1.07;;
10880;SDS011;5493;48.884;8.338;2023-01-08T10:54:25;1.67;;;1.30;;
10880;SDS011;5493;48.884;8.338;2023-01-08T10:56:55;1.63;;;1.53;;
10880;SDS011;5493;48.884;8.338;2023-01-08T10:59:22;2.23;;;1.47;;
10880;SDS011;5493;48.884;8.338;2023-01-08T11:01:50;1.40;;;1.00;;
10880;SDS011;5493;48.884;8.338;2023-01-08T11:04:19;1.57;;;1.10;;
10880;SDS011;5493;48.884;8.338;2023-01-08T11:06:50;3.50;;;1.10;;
10880;SDS011;5493;48.884;8.338;2023-01-08T11:09:18;1.53;;;1.23;;
10880;SDS011;5493;48.884;8.338;2023-01-08T11:11:49;1.03;;;0.77;;
10880;SDS011;5493;48.884;8.338;2023-01-08T11:14:18;1.37;;;1.17;;
10880;SDS011;5493;48.884;8.338;2023-01-08T11:16:47;2.53;;;1.03;;
10880;SDS011;5493;48.884;8.338;2023-01-08T11:19:16;1.70;;;1.07;;
10880;SDS011;5493;48.884;8.338;2023-01-08T11:21:55;0.93;;;0.83;;
10880;SDS011;5493;48.884;8.338;2023-01-08T11:24:24;1.83;;;1.40;;
10880;SDS011;5493;48.884;8.338;2023-01-08T11:26:55;2.27;;;1.47;;
10880;SDS011;5493;48.884;8.338;2023-01-08T11:29:28;1.63;;;1.10;;
10880;SDS011;5493;48.884;8.338;2023-01-08T11:32:04;2.43;;;1.63;;
10880;SDS011;5493;48.884;8.338;2023-01-08T11:34:45;1.23;;;0.90;;
10880;SDS011;5493;48.884;8.338;2023-01-08T11:37:19;1.03;;;0.90;;
10880;SDS011;5493;48.884;8.338;2023-01-08T11:39:48;0.87;;;0.60;;
10880;SDS011;5493;48.884;8.338;2023-01-08T11:42:32;1.10;;;0.90;;
10880;SDS011;5493;48.884;8.338;2023-01-08T11:45:15;0.93;;;0.83;;
10880;SDS011;5493;48.884;8.338;2023-01-08T11:47:57;2.17;;;1.00;;
10880;SDS011;5493;48.884;8.338;2023-01-08T11:50:37;1.43;;;1.00;;
10880;SDS011;5493;48.884;8.338;2023-01-08T11:53:13;1.17;;;0.90;;
10880;SDS011;5493;48.884;8.338;2023-01-08T11:55:49;0.70;;;0.70;;
10880;SDS011;5493;48.884;8.338;2023-01-08T11:58:31;0.77;;;0.77;;
10880;SDS011;5493;48.884;8.338;2023-01-08T12:01:13;1.97;;;1.20;;
10880;SDS011;5493;48.884;8.338;2023-01-08T12:03:50;1.00;;;0.77;;
10880;SDS011;5493;48.884;8.338;2023-01-08T12:06:30;1.97;;;0.53;;
10880;SDS011;5493;48.884;8.338;2023-01-08T12:09:12;1.37;;;1.10;;
10880;SDS011;5493;48.884;8.338;2023-01-08T12:11:47;2.07;;;1.43;;
10880;SDS011;5493;48.884;8.338;2023-01-08T12:14:24;2.70;;;1.73;;
10880;SDS011;5493;48.884;8.338;2023-01-08T12:17:04;2.20;;;1.60;;
10880;SDS011;5493;48.884;8.338;2023-01-08T12:19:46;4.13;;;2.13;;
10880;SDS011;5493;48.884;8.338;2023-01-08T12:22:25;2.87;;;1.90;;
10880;SDS011;5493;48.884;8.338;2023-01-08T12:27:56;2.93;;;1.80;;
10880;SDS011;5493;48.884;8.338;2023-01-08T12:30:34;3.47;;;1.57;;
10880;SDS011;5493;48.884;8.338;2023-01-08T12:33:11;2.33;;;1.50;;
10880;SDS011;5493;48.884;8.338;2023-01-08T12:35:44;2.67;;;2.00;;
10880;SDS011;5493;48.884;8.338;2023-01-08T12:38:16;2.47;;;1.47;;
10880;SDS011;5493;48.884;8.338;2023-01-08T12:40:48;2.57;;;1.70;;
10880;SDS011;5493;48.884;8.338;2023-01-08T12:43:19;2.03;;;1.83;;
10880;SDS011;5493;48.884;8.338;2023-01-08T12:45:51;2.80;;;1.80;;
10880;SDS011;5493;48.884;8.338;2023-01-08T12:48:22;1.80;;;1.37;;
10880;SDS011;5493;48.884;8.338;2023-01-08T12:50:55;2.67;;;1.87;;
10880;SDS011;5493;48.884;8.338;2023-01-08T12:53:29;4.73;;;2.13;;
10880;SDS011;5493;48.884;8.338;2023-01-08T12:56:07;2.80;;;1.80;;
10880;SDS011;5493;48.884;8.338;2023-01-08T12:58:52;2.97;;;1.50;;
10880;SDS011;5493;48.884;8.338;2023-01-08T13:01:32;2.40;;;1.70;;
10880;SDS011;5493;48.884;8.338;2023-01-08T13:04:03;2.73;;;1.90;;
10880;SDS011;5493;48.884;8.338;2023-01-08T13:06:33;3.73;;;1.87;;
10880;SDS011;5493;48.884;8.338;2023-01-08T13:09:00;2.53;;;1.60;;
10880;SDS011;5493;48.884;8.338;2023-01-08T13:11:29;3.20;;;2.37;;
10880;SDS011;5493;48.884;8.338;2023-01-08T13:14:02;2.93;;;2.20;;
10880;SDS011;5493;48.884;8.338;2023-01-08T13:16:31;2.00;;;1.47;;
10880;SDS011;5493;48.884;8.338;2023-01-08T13:19:03;2.47;;;1.70;;
10880;SDS011;5493;48.884;8.338;2023-01-08T13:21:32;2.63;;;1.60;;
10880;SDS011;5493;48.884;8.338;2023-01-08T13:24:02;1.47;;;1.37;;
10880;SDS011;5493;48.884;8.338;2023-01-08T13:26:47;2.10;;;1.60;;
10880;SDS011;5493;48.884;8.338;2023-01-08T13:32:04;3.30;;;2.20;;
10880;SDS011;5493;48.884;8.338;2023-01-08T13:34:47;1.50;;;1.40;;
10880;SDS011;5493;48.884;8.338;2023-01-08T13:37:22;2.33;;;1.80;;
10880;SDS011;5493;48.884;8.338;2023-01-08T13:39:49;1.37;;;1.10;;
10880;SDS011;5493;48.884;8.338;2023-01-08T13:42:23;1.60;;;1.30;;
10880;SDS011;5493;48.884;8.338;2023-01-08T13:44:56;1.20;;;1.10;;
10880;SDS011;5493;48.884;8.338;2023-01-08T13:47:26;1.90;;;1.50;;
10880;SDS011;5493;48.884;8.338;2023-01-08T13:49:56;1.60;;;1.10;;
10880;SDS011;5493;48.884;8.338;2023-01-08T13:52:30;1.77;;;1.20;;
10880;SDS011;5493;48.884;8.338;2023-01-08T13:55:00;1.00;;;0.90;;
10880;SDS011;5493;48.884;8.338;2023-01-08T13:57:32;0.93;;;0.77;;
10880;SDS011;5493;48.884;8.338;2023-01-08T14:00:08;0.83;;;0.60;;
10880;SDS011;5493;48.884;8.338;2023-01-08T14:02:43;0.77;;;0.60;;
10880;SDS011;5493;48.884;8.338;2023-01-08T14:05:18;0.87;;;0.70;;
10880;SDS011;5493;48.884;8.338;2023-01-08T14:07:50;1.00;;;0.80;;
10880;SDS011;5493;48.884;8.338;2023-01-08T14:10:17;4.37;;;2.60;;
10880;SDS011;5493;48.884;8.338;2023-01-08T14:12:45;3.30;;;1.20;;
10880;SDS011;5493;48.884;8.338;2023-01-08T14:15:16;2.43;;;2.10;;
10880;SDS011;5493;48.884;8.338;2023-01-08T14:17:46;3.83;;;2.47;;
10880;SDS011;5493;48.884;8.338;2023-01-08T14:20:14;4.63;;;3.70;;
10880;SDS011;5493;48.884;8.338;2023-01-08T14:22:46;4.50;;;3.40;;
10880;SDS011;5493;48.884;8.338;2023-01-08T14:25:13;5.73;;;3.70;;
10880;SDS011;5493;48.884;8.338;2023-01-08T14:27:45;3.87;;;2.80;;
10880;SDS011;5493;48.884;8.338;2023-01-08T14:30:20;1.77;;;1.60;;
10880;SDS011;5493;48.884;8.338;2023-01-08T14:32:46;2.20;;;1.83;;
10880;SDS011;5493;48.884;8.338;2023-01-08T14:35:14;3.33;;;2.37;;
10880;SDS011;5493;48.884;8.338;2023-01-08T14:37:43;4.00;;;2.30;;
10880;SDS011;5493;48.884;8.338;2023-01-08T14:40:12;3.77;;;2.83;;
10880;SDS011;5493;48.884;8.338;2023-01-08T14:42:39;6.30;;;4.00;;
10880;SDS011;5493;48.884;8.338;2023-01-08T14:45:12;7.37;;;4.17;;
10880;SDS011;5493;48.884;8.338;2023-01-08T14:47:44;7.33;;;3.70;;
10880;SDS011;5493;48.884;8.338;2023-01-08T14:50:19;4.67;;;3.10;;
10880;SDS011;5493;48.884;8.338;2023-01-08T14:52:50;4.67;;;2.97;;
10880;SDS011;5493;48.884;8.338;2023-01-08T14:55:18;6.57;;;3.67;;
10880;SDS011;5493;48.884;8.338;2023-01-08T14:57:45;6.57;;;4.03;;
10880;SDS011;5493;48.884;8.338;2023-01-08T15:00:18;6.17;;;4.00;;
10880;SDS011;5493;48.884;8.338;2023-01-08T15:02:47;5.77;;;3.77;;
10880;SDS011;5493;48.884;8.338;2023-01-08T15:05:18;5.43;;;3.53;;
10880;SDS011;5493;48.884;8.338;2023-01-08T15:07:53;5.30;;;3.20;;
10880;SDS011;5493;48.884;8.338;2023-01-08T15:10:30;3.60;;;2.30;;
10880;SDS011;5493;48.884;8.338;2023-01-08T15:12:59;4.37;;;3.20;;
10880;SDS011;5493;48.884;8.338;2023-01-08T15:15:29;5.97;;;4.23;;
10880;SDS011;5493;48.884;8.338;2023-01-08T15:17:58;3.40;;;2.63;;
10880;SDS011;5493;48.884;8.338;2023-01-08T15:20:26;3.67;;;3.03;;